Time;durP1;ratioP1;P1;durP2;ratioP2;P2;SDS_P1;SDS_P2;PMS_P1;PMS_P2;Temp;Humidity;BMP_temperature;BMP_pressure;BME280_temperature;BME280_humidity;BME280_pressure;Samples;Min_cycle;Max_cycle;Signal;HPM_P1;HPM_P2
2023/01/30 00:00:59;;;;;;;0.55;0.32;;;;;;;18.56;62.18;97193.38;5019811;28;20198;-25
2023/01/30 00:03:25;;;;;;;0.40;0.40;;;;;;;18.56;62.73;97187.97;5021774;28;20084;-23
2023/01/30 00:05:50;;;;;;;0.35;0.25;;;;;;;18.52;62.72;97166.19;5022762;28;20109;-23
2023/01/30 00:08:16;;;;;;;1.45;0.30;;;;;;;18.56;62.79;97167.13;5021077;28;20104;-24
2023/01/30 00:10:43;;;;;;;0.47;0.30;;;;;;;18.55;62.49;97152.00;5019852;28;20120;-23
2023/01/30 00:13:09;;;;;;;0.35;0.30;;;;;;;18.54;62.03;97153.13;5021484;28;20078;-24
2023/01/30 00:15:35;;;;;;;0.43;0.30;;;;;;;18.57;62.33;97135.44;5021854;28;20025;-25
2023/01/30 00:18:00;;;;;;;0.57;0.40;;;;;;;18.55;62.72;97124.94;5023131;28;20384;-24
2023/01/30 00:20:26;;;;;;;0.30;0.30;;;;;;;18.55;62.64;97116.84;5021387;28;20018;-25
2023/01/30 00:22:52;;;;;;;0.40;0.40;;;;;;;18.56;63.02;97118.44;5021834;28;20021;-24
2023/01/30 00:25:19;;;;;;;0.28;0.20;;;;;;;18.57;62.62;97103.00;5022330;28;20026;-23
2023/01/30 00:27:45;;;;;;;0.28;0.25;;;;;;;18.55;62.17;97108.72;5023291;28;20109;-26
2023/01/30 00:30:11;;;;;;;0.50;0.28;;;;;;;18.56;62.83;97088.69;5022590;28;20017;-23
2023/01/30 00:32:37;;;;;;;0.35;0.30;;;;;;;18.55;62.39;97087.09;5021761;28;20079;-24
2023/01/30 00:35:03;;;;;;;0.38;0.30;;;;;;;18.56;61.87;97072.47;5022325;28;20065;-23
2023/01/30 00:37:28;;;;;;;0.25;0.20;;;;;;;18.57;62.54;97074.06;5023101;28;20037;-28
2023/01/30 00:39:54;;;;;;;0.30;0.30;;;;;;;18.56;62.79;97067.06;5027217;28;20030;-23
2023/01/30 00:47:48;;;;;;;;;;;;;;;18.59;62.65;97057.50;5026791;28;20115;-23
2023/01/30 00:50:14;;;;;;;0.50;0.20;;;;;;;18.57;62.61;97044.31;5026378;28;20382;-24
2023/01/30 00:52:40;;;;;;;0.22;0.20;;;;;;;18.58;62.72;97037.00;5026324;28;20100;-24
2023/01/30 00:55:06;;;;;;;0.30;0.30;;;;;;;18.57;60.71;97036.22;5026443;28;20021;-22
2023/01/30 00:57:32;;;;;;;1.70;0.30;;;;;;;18.58;62.84;97015.38;5024484;28;20063;-23
2023/01/30 00:59:58;;;;;;;0.20;0.20;;;;;;;18.57;62.72;96998.34;5026971;28;20029;-25
2023/01/30 01:02:23;;;;;;;0.20;0.20;;;;;;;18.58;62.78;96993.72;5024693;28;20083;-23
2023/01/30 01:04:49;;;;;;;0.30;0.20;;;;;;;18.56;62.75;96983.22;5024693;28;20036;-22
2023/01/30 01:07:15;;;;;;;0.38;0.30;;;;;;;18.58;63.04;96981.00;5026797;28;20116;-23
2023/01/30 01:09:41;;;;;;;0.55;0.28;;;;;;;18.57;61.37;96978.59;5024918;28;20029;-25
2023/01/30 01:12:06;;;;;;;0.20;0.20;;;;;;;18.58;62.73;96962.06;5025229;28;20036;-23
2023/01/30 01:14:32;;;;;;;0.28;0.20;;;;;;;18.60;63.05;96956.34;5026472;28;20033;-24
2023/01/30 01:16:58;;;;;;;0.20;0.20;;;;;;;18.60;62.85;96950.13;5026898;28;20053;-23
2023/01/30 01:19:24;;;;;;;0.20;0.20;;;;;;;18.60;62.93;96932.00;5025687;28;20115;-25
2023/01/30 01:21:49;;;;;;;0.68;0.20;;;;;;;18.61;63.05;96940.91;5026598;28;20113;-23
2023/01/30 01:24:15;;;;;;;0.20;0.20;;;;;;;18.62;62.94;96915.44;5025335;28;20116;-25
2023/01/30 01:26:41;;;;;;;0.13;0.13;;;;;;;18.60;63.07;96912.28;5026280;28;20120;-25
2023/01/30 01:29:08;;;;;;;0.20;0.20;;;;;;;18.62;62.88;96904.63;5026726;28;20021;-23
2023/01/30 01:31:34;;;;;;;0.22;0.20;;;;;;;18.63;63.29;96890.00;5024200;28;20013;-25
2023/01/30 01:33:59;;;;;;;0.20;0.20;;;;;;;18.62;62.97;96888.41;5025302;28;20035;-23
2023/01/30 01:36:25;;;;;;;0.38;0.20;;;;;;;18.62;63.05;96874.88;5025861;28;20029;-22
2023/01/30 01:38:51;;;;;;;0.20;0.20;;;;;;;18.62;62.98;96872.19;5025551;28;20082;-27
2023/01/30 01:41:19;;;;;;;0.20;0.20;;;;;;;18.63;63.11;96873.78;5025831;28;20037;-24
2023/01/30 01:44:12;;;;;;;1.33;0.22;;;;;;;18.63;62.97;96866.44;5025882;28;20029;-23
2023/01/30 01:46:59;;;;;;;0.20;0.20;;;;;;;18.63;63.04;96858.34;5024264;28;20030;-23
2023/01/30 01:49:27;;;;;;;0.20;0.20;;;;;;;18.62;63.12;96848.63;5021546;28;20086;-23
2023/01/30 01:51:56;;;;;;;0.30;0.20;;;;;;;18.62;63.26;96861.38;5020393;28;20802;-22
2023/01/30 01:54:43;;;;;;;0.20;0.20;;;;;;;18.64;62.92;96849.09;5024325;28;20065;-24
2023/01/30 01:57:16;;;;;;;0.13;0.13;;;;;;;18.64;63.00;96834.78;5024404;28;20030;-23
2023/01/30 01:59:44;;;;;;;0.20;0.20;;;;;;;18.64;62.89;96830.16;5024791;28;20033;-23
2023/01/30 02:02:11;;;;;;;0.20;0.10;;;;;;;18.64;63.42;96832.84;5023595;28;20087;-24
2023/01/30 02:07:22;;;;;;;0.17;0.17;;;;;;;18.64;63.19;96826.66;5023874;28;20086;-24
2023/01/30 02:09:48;;;;;;;0.20;0.20;;;;;;;18.65;63.15;96830.97;5025042;28;20029;-24
2023/01/30 02:12:14;;;;;;;0.20;0.20;;;;;;;18.65;63.12;96822.84;5024921;28;20030;-23
2023/01/30 02:14:40;;;;;;;0.20;0.20;;;;;;;18.66;63.38;96819.81;5023443;28;20032;-24
2023/01/30 02:17:05;;;;;;;0.20;0.20;;;;;;;18.65;63.55;96810.13;5025555;28;20033;-23
2023/01/30 02:19:49;;;;;;;0.20;0.20;;;;;;;18.68;63.47;96808.66;5024195;28;20483;-22
2023/01/30 02:22:33;;;;;;;0.20;0.20;;;;;;;18.67;63.25;96798.97;5024947;28;20079;-23
2023/01/30 02:25:19;;;;;;;0.20;0.20;;;;;;;18.66;63.32;96791.97;5024426;28;20040;-24
2023/01/30 02:27:57;;;;;;;0.22;0.20;;;;;;;18.66;62.94;96784.66;5024695;28;20042;-23
2023/01/30 02:30:50;;;;;;;0.10;0.10;;;;;;;18.68;63.17;96787.03;5022446;28;20128;-24
2023/01/30 02:33:38;;;;;;;0.20;0.20;;;;;;;18.66;63.36;96765.75;5024400;28;20033;-23
2023/01/30 02:36:15;;;;;;;0.20;0.20;;;;;;;18.67;63.64;96767.31;5023929;28;20792;-22
2023/01/30 02:38:44;;;;;;;0.20;0.20;;;;;;;18.66;63.21;96760.34;5022916;28;20026;-25
2023/01/30 02:41:46;;;;;;;0.20;0.20;;;;;;;18.68;63.41;96752.69;5023114;28;20032;-23
2023/01/30 02:44:36;;;;;;;0.20;0.20;;;;;;;18.67;63.38;96744.88;5023519;28;20087;-22
2023/01/30 02:47:12;;;;;;;0.10;0.10;;;;;;;18.68;63.55;96735.63;5024327;28;20033;-24
2023/01/30 02:49:53;;;;;;;0.13;0.13;;;;;;;18.67;63.25;96725.97;5022501;28;20638;-23
2023/01/30 02:52:19;;;;;;;0.47;0.20;;;;;;;18.67;63.30;96724.03;5021135;28;20061;-22
2023/01/30 02:54:45;;;;;;;0.15;0.15;;;;;;;18.68;63.20;96719.41;5023091;28;20022;-22
2023/01/30 02:57:21;;;;;;;0.20;0.20;;;;;;;18.68;63.57;96703.19;5022699;28;20048;-24
2023/01/30 02:59:48;;;;;;;0.20;0.20;;;;;;;18.69;62.96;96705.56;5022710;28;20440;-22
2023/01/30 03:02:36;;;;;;;0.20;0.20;;;;;;;18.70;63.44;96700.97;5020457;28;20044;-23
2023/01/30 03:05:26;;;;;;;0.50;0.20;;;;;;;18.70;63.52;96687.44;5006648;28;20093;-23
2023/01/30 03:08:23;;;;;;;0.20;0.20;;;;;;;18.70;63.28;96682.81;4995017;28;20026;-24
2023/01/30 03:10:58;;;;;;;0.10;0.10;;;;;;;18.70;63.51;96680.09;5023512;28;20112;-23
2023/01/30 03:13:42;;;;;;;0.22;0.20;;;;;;;18.70;63.48;96668.50;4993052;28;20030;-28
2023/01/30 03:16:32;;;;;;;0.17;0.17;;;;;;;18.71;63.29;96653.84;5024084;28;20027;-23
2023/01/30 03:19:01;;;;;;;0.20;0.20;;;;;;;18.70;63.42;96657.69;5021078;28;20554;-23
2023/01/30 03:21:26;;;;;;;0.20;0.20;;;;;;;18.70;63.40;96646.88;5020304;28;20108;-22
2023/01/30 03:23:52;;;;;;;0.15;0.15;;;;;;;18.71;63.44;96638.44;5024390;28;20495;-23
2023/01/30 03:26:19;;;;;;;0.10;0.10;;;;;;;18.73;63.57;96640.78;5022196;28;20380;-23
2023/01/30 03:28:45;;;;;;;0.30;0.30;;;;;;;18.70;63.44;96631.44;5006272;28;20399;-26
2023/01/30 03:31:11;;;;;;;0.20;0.20;;;;;;;18.71;63.48;96632.22;5022351;28;20152;-23
2023/01/30 03:33:37;;;;;;;0.20;0.20;;;;;;;18.71;63.42;96626.78;5021544;28;20068;-22
2023/01/30 03:36:03;;;;;;;0.10;0.10;;;;;;;18.72;63.57;96622.97;5021911;28;20112;-24
2023/01/30 03:38:29;;;;;;;0.20;0.20;;;;;;;18.72;63.45;96615.66;5023316;28;20116;-24
2023/01/30 03:40:54;;;;;;;0.20;0.20;;;;;;;18.72;63.32;96620.28;5023568;28;20037;-22
2023/01/30 03:43:20;;;;;;;0.20;0.20;;;;;;;18.72;63.39;96609.47;5023050;28;20117;-25
2023/01/30 03:45:45;;;;;;;0.10;0.10;;;;;;;18.73;63.54;96605.63;5021791;28;20025;-23
2023/01/30 03:48:11;;;;;;;0.30;0.20;;;;;;;18.71;63.09;96594.34;5023357;28;20037;-23
2023/01/30 03:50:37;;;;;;;0.30;0.20;;;;;;;18.73;63.47;96595.59;5022121;28;20495;-24
2023/01/30 03:53:02;;;;;;;0.10;0.10;;;;;;;18.70;63.52;96566.53;5024116;28;20030;-22
2023/01/30 03:55:28;;;;;;;0.38;0.10;;;;;;;18.74;63.24;96561.22;5023013;28;20656;-23
2023/01/30 03:57:55;;;;;;;0.20;0.20;;;;;;;18.74;63.54;96561.22;5021944;28;20023;-22
2023/01/30 04:00:21;;;;;;;0.85;0.20;;;;;;;18.74;63.36;96555.81;5023299;28;20021;-26
2023/01/30 04:02:47;;;;;;;0.10;0.10;;;;;;;18.73;63.65;96544.22;5023334;28;20025;-23
2023/01/30 04:05:12;;;;;;;0.20;0.20;;;;;;;18.73;63.40;96546.94;5001912;28;20030;-22
2023/01/30 04:07:38;;;;;;;0.63;0.20;;;;;;;18.75;63.42;96549.28;5020295;28;20033;-26
2023/01/30 04:10:04;;;;;;;0.47;0.25;;;;;;;18.74;63.64;96537.66;5021642;28;20030;-24
2023/01/30 04:12:30;;;;;;;0.10;0.10;;;;;;;18.75;63.43;96527.66;5022618;28;20017;-22
2023/01/30 04:14:56;;;;;;;0.10;0.10;;;;;;;18.75;63.53;96524.97;5022782;28;20029;-23
2023/01/30 04:17:21;;;;;;;0.20;0.20;;;;;;;18.74;63.41;96509.84;5021732;28;20037;-27
2023/01/30 04:19:47;;;;;;;0.17;0.17;;;;;;;18.76;63.47;96513.00;5022774;28;20383;-23
2023/01/30 04:22:13;;;;;;;0.10;0.10;;;;;;;18.77;63.55;96509.19;5022118;28;20072;-25
2023/01/30 04:24:38;;;;;;;0.20;0.20;;;;;;;18.74;63.53;96499.03;5022606;28;20104;-23
2023/01/30 04:27:04;;;;;;;0.38;0.20;;;;;;;18.76;63.42;96494.88;5021565;28;20053;-22
2023/01/30 04:29:30;;;;;;;0.10;0.10;;;;;;;18.77;63.75;96499.13;5020396;28;20022;-25
2023/01/30 04:31:55;;;;;;;0.13;0.13;;;;;;;18.76;63.49;96492.16;5022450;28;20033;-23
2023/01/30 04:34:21;;;;;;;0.10;0.10;;;;;;;18.77;63.73;96479.44;5022408;28;20045;-23
2023/01/30 04:36:47;;;;;;;0.10;0.10;;;;;;;18.77;63.46;96480.22;5023074;28;20379;-23
2023/01/30 04:39:12;;;;;;;0.10;0.10;;;;;;;18.79;63.83;96470.97;5021794;28;20033;-22
2023/01/30 04:41:38;;;;;;;0.10;0.10;;;;;;;18.79;63.14;96460.16;5022377;28;20121;-23
2023/01/30 04:44:03;;;;;;;0.15;0.15;;;;;;;18.77;63.73;96450.44;5023225;28;20096;-22
2023/01/30 04:46:29;;;;;;;0.22;0.10;;;;;;;18.77;63.57;96441.56;5022959;28;20040;-23
2023/01/30 04:48:55;;;;;;;0.15;0.15;;;;;;;18.78;63.76;96443.13;5023148;28;20025;-24
2023/01/30 04:51:20;;;;;;;0.20;0.20;;;;;;;18.80;63.79;96430.06;5022090;28;20048;-23
2023/01/30 04:53:46;;;;;;;0.10;0.10;;;;;;;18.79;63.79;96425.78;5022883;28;20033;-23
2023/01/30 04:56:12;;;;;;;0.10;0.10;;;;;;;18.77;63.56;96412.59;5021430;28;20030;-22
2023/01/30 04:58:37;;;;;;;0.20;0.20;;;;;;;18.80;63.73;96416.53;5023490;28;20112;-24
2023/01/30 05:01:16;;;;;;;0.10;0.10;;;;;;;18.80;63.63;96407.63;5019788;28;20057;-28
2023/01/30 05:03:41;;;;;;;0.22;0.22;;;;;;;18.80;63.88;96402.22;5020539;28;20053;-25
2023/01/30 05:06:07;;;;;;;0.17;0.17;;;;;;;18.80;64.03;96397.63;5022719;28;20479;-22
2023/01/30 05:08:33;;;;;;;0.20;0.20;;;;;;;18.80;63.67;96384.09;5020926;28;20028;-23
2023/01/30 05:10:58;;;;;;;0.10;0.10;;;;;;;18.80;63.59;96386.78;5023209;28;20132;-26
2023/01/30 05:13:24;;;;;;;0.10;0.10;;;;;;;18.80;63.61;96389.50;5022036;28;20099;-25
2023/01/30 05:15:50;;;;;;;0.10;0.10;;;;;;;18.81;63.88;96382.94;5022408;28;20068;-24
2023/01/30 05:18:15;;;;;;;0.22;0.10;;;;;;;18.81;63.87;96377.53;5022492;28;20029;-23
2023/01/30 05:20:41;;;;;;;0.10;0.10;;;;;;;18.82;63.67;96379.16;5022770;28;20033;-22
2023/01/30 05:23:06;;;;;;;0.10;0.10;;;;;;;18.83;63.78;96369.91;5022293;28;20326;-24
2023/01/30 05:25:32;;;;;;;0.20;0.20;;;;;;;18.82;63.54;96367.53;5023876;28;20029;-23
2023/01/30 05:27:58;;;;;;;0.10;0.10;;;;;;;18.83;63.45;96366.41;5026186;28;20037;-23
2023/01/30 05:30:24;;;;;;;0.63;0.30;;;;;;;18.83;63.83;96369.91;5026937;28;20060;-23
2023/01/30 05:32:50;;;;;;;0.20;0.20;;;;;;;18.83;63.77;96350.97;5025766;28;20032;-24
2023/01/30 05:35:18;;;;;;;0.20;0.20;;;;;;;18.85;63.75;96358.75;5025679;28;20029;-23
2023/01/30 05:37:49;;;;;;;0.10;0.10;;;;;;;18.86;64.08;96349.50;5025376;28;20053;-23
2023/01/30 05:40:15;;;;;;;0.52;0.20;;;;;;;18.84;63.82;96357.19;5024123;28;20510;-23
2023/01/30 05:42:40;;;;;;;0.10;0.10;;;;;;;18.85;63.85;96358.75;5025798;28;20033;-24
2023/01/30 05:45:07;;;;;;;0.20;0.20;;;;;;;18.86;63.74;96350.28;5024540;28;20025;-24
2023/01/30 05:47:32;;;;;;;0.40;0.13;;;;;;;18.84;63.90;96333.63;5024630;28;20033;-23
2023/01/30 05:49:58;;;;;;;0.10;0.10;;;;;;;18.86;63.94;96342.16;5026633;28;20037;-23
2023/01/30 05:52:25;;;;;;;0.43;0.20;;;;;;;18.86;63.82;96342.16;5028298;28;20132;-24
2023/01/30 05:54:51;;;;;;;0.20;0.20;;;;;;;18.85;63.95;96340.63;5027484;28;20034;-23
2023/01/30 05:57:20;;;;;;;0.17;0.17;;;;;;;18.86;63.60;96325.94;5026630;28;20033;-24
2023/01/30 05:59:45;;;;;;;0.40;0.20;;;;;;;18.86;63.55;96325.94;5027248;28;20025;-22
2023/01/30 06:02:11;;;;;;;0.47;0.22;;;;;;;18.86;63.88;96325.94;5027122;28;20036;-23
2023/01/30 06:04:37;;;;;;;0.20;0.20;;;;;;;18.85;63.74;96321.69;5027451;28;20044;-24
2023/01/30 06:07:02;;;;;;;0.20;0.20;;;;;;;18.86;63.86;96315.13;5027518;28;20032;-23
2023/01/30 06:09:28;;;;;;;0.20;0.20;;;;;;;18.86;63.87;96304.31;5024012;28;20026;-26
2023/01/30 06:11:54;;;;;;;0.20;0.20;;;;;;;18.87;63.63;96307.81;5026894;28;20061;-22
2023/01/30 06:14:20;;;;;;;0.10;0.10;;;;;;;18.87;63.60;96311.31;5027111;28;20039;-23
2023/01/30 06:16:46;;;;;;;0.22;0.20;;;;;;;18.88;63.70;96312.84;5027052;28;20116;-22
2023/01/30 06:19:11;;;;;;;0.20;0.20;;;;;;;18.88;63.67;96310.16;5025658;28;20394;-22
2023/01/30 06:21:37;;;;;;;0.20;0.20;;;;;;;18.88;63.54;96302.03;5026400;28;20021;-22
2023/01/30 06:24:02;;;;;;;0.28;0.20;;;;;;;18.89;63.93;96300.91;5026551;28;20472;-22
2023/01/30 06:26:28;;;;;;;1.48;0.35;;;;;;;18.89;63.61;96298.22;5025894;28;20026;-25
2023/01/30 06:28:54;;;;;;;0.35;0.20;;;;;;;18.89;63.78;96303.63;5026909;28;20116;-23
2023/01/30 06:31:20;;;;;;;0.20;0.20;;;;;;;18.88;63.93;96293.16;5026054;28;20025;-24
2023/01/30 06:33:45;;;;;;;0.20;0.20;;;;;;;18.89;63.95;96283.91;5026861;28;20383;-23
2023/01/30 06:36:11;;;;;;;0.10;0.10;;;;;;;18.88;64.00;96280.41;5026232;28;20485;-26
2023/01/30 06:38:37;;;;;;;0.20;0.20;;;;;;;18.89;64.07;96283.91;5026224;28;20033;-23
2023/01/30 06:41:02;;;;;;;0.30;0.10;;;;;;;18.89;63.84;96284.69;5026002;28;20053;-25
2023/01/30 06:43:28;;;;;;;0.20;0.20;;;;;;;18.90;63.80;96280.88;5025723;28;20025;-23
2023/01/30 06:45:54;;;;;;;0.20;0.20;;;;;;;18.91;63.70;96282.44;5024591;28;20044;-26
2023/01/30 06:48:19;;;;;;;0.38;0.30;;;;;;;18.91;63.86;96271.59;5026219;28;20416;-23
2023/01/30 06:50:46;;;;;;;0.17;0.17;;;;;;;18.91;63.42;96268.91;5024405;28;20037;-22
2023/01/30 06:53:12;;;;;;;0.15;0.15;;;;;;;18.91;63.85;96279.72;5026167;28;20406;-22
2023/01/30 06:55:38;;;;;;;0.20;0.20;;;;;;;18.91;63.73;96266.19;5025663;28;20194;-23
2023/01/30 06:58:06;;;;;;;0.10;0.10;;;;;;;18.91;63.86;96265.41;5026118;28;20029;-23
2023/01/30 07:00:31;;;;;;;0.20;0.20;;;;;;;18.92;63.69;96269.69;5024108;28;20060;-26
2023/01/30 07:02:57;;;;;;;0.15;0.15;;;;;;;18.92;63.85;96259.66;5024761;28;20029;-23
2023/01/30 07:05:23;;;;;;;0.20;0.20;;;;;;;18.92;64.29;96256.16;5025628;28;20080;-26
2023/01/30 07:07:48;;;;;;;0.10;0.10;;;;;;;18.93;64.29;96260.44;5023645;28;20033;-23
2023/01/30 07:10:17;;;;;;;0.28;0.28;;;;;;;18.91;64.09;96249.97;5025314;28;20029;-24
2023/01/30 07:12:45;;;;;;;0.20;0.20;;;;;;;18.93;64.03;96247.69;5026342;28;20121;-23
2023/01/30 07:15:11;;;;;;;0.15;0.15;;;;;;;18.94;63.98;96234.97;5025332;28;20570;-23
2023/01/30 07:17:36;;;;;;;0.10;0.10;;;;;;;18.93;63.99;96228.75;5024835;28;20598;-23
2023/01/30 07:20:02;;;;;;;0.20;0.20;;;;;;;18.94;64.02;96222.22;5024223;28;20025;-22
2023/01/30 07:22:28;;;;;;;0.30;0.20;;;;;;;18.93;63.81;96228.75;5025318;28;20060;-25
2023/01/30 07:24:53;;;;;;;0.20;0.20;;;;;;;18.93;63.95;96236.88;5025749;28;20022;-23
2023/01/30 07:27:20;;;;;;;0.13;0.13;;;;;;;18.94;63.81;96229.56;5024709;28;20029;-23
2023/01/30 07:29:46;;;;;;;0.25;0.20;;;;;;;18.93;64.05;96215.22;5025662;28;20121;-24
2023/01/30 07:32:14;;;;;;;0.13;0.13;;;;;;;18.93;63.91;96227.97;5025093;28;20434;-24
2023/01/30 07:34:40;;;;;;;0.20;0.20;;;;;;;18.92;63.68;96223.69;5023744;28;20048;-22
2023/01/30 07:37:06;;;;;;;0.10;0.10;;;;;;;18.93;63.88;96227.97;5024678;28;20065;-24
2023/01/30 07:39:32;;;;;;;0.20;0.20;;;;;;;18.97;63.65;96225.38;5024425;28;20029;-26
2023/01/30 07:41:59;;;;;;;0.20;0.20;;;;;;;18.95;63.90;96214.91;5025845;28;20036;-23
2023/01/30 07:44:25;;;;;;;0.10;0.10;;;;;;;18.94;63.75;96224.16;5025191;28;20022;-23
2023/01/30 07:46:50;;;;;;;0.20;0.20;;;;;;;18.95;63.70;96229.22;5023801;28;20025;-23
2023/01/30 07:49:16;;;;;;;0.30;0.30;;;;;;;18.95;63.89;96221.13;5024494;28;20064;-24
2023/01/30 07:51:42;;;;;;;0.30;0.30;;;;;;;18.97;64.01;96226.16;5024232;28;20047;-28
2023/01/30 07:54:07;;;;;;;0.20;0.20;;;;;;;18.97;63.76;96219.97;5023301;28;20370;-22
2023/01/30 07:56:34;;;;;;;0.15;0.15;;;;;;;18.97;63.59;96217.25;5024900;28;20530;-25
2023/01/30 07:58:59;;;;;;;0.10;0.10;;;;;;;18.95;63.94;96209.47;5024663;28;20033;-24
2023/01/30 08:01:25;;;;;;;0.17;0.17;;;;;;;18.95;63.78;96213.00;5023833;28;20043;-22
2023/01/30 08:03:51;;;;;;;0.20;0.20;;;;;;;18.95;64.01;96204.88;5025084;28;20021;-23
2023/01/30 08:06:17;;;;;;;0.10;0.10;;;;;;;18.95;63.64;96210.28;5024853;28;20391;-23
2023/01/30 08:08:42;;;;;;;0.20;0.20;;;;;;;18.98;63.81;96210.72;5022597;28;20037;-23
2023/01/30 08:11:08;;;;;;;0.10;0.10;;;;;;;18.98;63.97;96205.31;5024940;28;20436;-22
2023/01/30 08:13:34;;;;;;;0.10;0.10;;;;;;;18.97;63.50;96211.84;5024706;28;20543;-23
2023/01/30 08:16:01;;;;;;;0.10;0.10;;;;;;;18.95;63.65;96198.66;5024704;28;20100;-23
2023/01/30 08:18:30;;;;;;;0.15;0.15;;;;;;;18.96;63.94;96194.84;5024760;28;20490;-22
2023/01/30 08:20:57;;;;;;;0.20;0.20;;;;;;;18.97;63.77;96195.63;5021321;28;20025;-23
2023/01/30 08:23:23;;;;;;;0.20;0.20;;;;;;;18.98;63.85;96199.91;5023910;28;20029;-23
2023/01/30 08:25:48;;;;;;;0.10;0.10;;;;;;;18.97;63.73;96190.19;5024548;28;20048;-24
2023/01/30 08:28:14;;;;;;;0.10;0.10;;;;;;;18.95;63.81;96179.72;5024427;28;20038;-24
2023/01/30 08:30:40;;;;;;;0.10;0.10;;;;;;;18.95;62.57;96195.97;5024652;28;20095;-24
2023/01/30 08:33:06;;;;;;;0.22;0.20;;;;;;;18.98;63.88;96191.78;5024806;28;20057;-24
2023/01/30 08:35:32;;;;;;;0.10;0.10;;;;;;;18.98;63.56;96184.44;5023452;28;20040;-24
2023/01/30 08:37:58;;;;;;;0.20;0.20;;;;;;;18.95;63.73;96177.81;5024223;28;20403;-23
2023/01/30 08:40:23;;;;;;;0.20;0.20;;;;;;;18.98;63.68;96180.97;5023922;28;20033;-22
2023/01/30 08:42:49;;;;;;;0.20;0.20;;;;;;;18.99;63.85;96188.75;5023275;28;20028;-24
2023/01/30 08:45:15;;;;;;;0.10;0.10;;;;;;;18.98;63.83;96179.03;5022607;28;20041;-23
2023/01/30 08:47:41;;;;;;;0.10;0.10;;;;;;;18.98;63.79;96173.63;5021701;28;20047;-23
2023/01/30 08:50:07;;;;;;;0.10;0.10;;;;;;;18.99;63.90;96179.81;5022164;28;20040;-22
2023/01/30 08:52:33;;;;;;;0.10;0.10;;;;;;;18.98;63.67;96181.75;5024714;28;20079;-24
2023/01/30 08:54:58;;;;;;;0.20;0.20;;;;;;;18.98;63.68;96176.34;5022973;28;20025;-25
2023/01/30 08:57:24;;;;;;;0.20;0.20;;;;;;;19.00;63.97;96178.69;5023831;28;20029;-23
2023/01/30 08:59:50;;;;;;;0.20;0.20;;;;;;;18.99;63.87;96182.53;5027811;28;20044;-22
2023/01/30 09:02:16;;;;;;;0.35;0.20;;;;;;;18.99;63.68;96175.22;5027314;28;20025;-22
2023/01/30 09:04:41;;;;;;;0.40;0.30;;;;;;;19.00;64.03;96176.00;5028647;28;20095;-23
2023/01/30 09:07:07;;;;;;;0.17;0.17;;;;;;;19.00;63.88;96184.13;5028246;28;20029;-24
2023/01/30 09:09:33;;;;;;;0.20;0.20;;;;;;;19.00;63.82;96184.13;5024780;28;20022;-23
2023/01/30 09:11:58;;;;;;;0.20;0.20;;;;;;;19.02;63.95;96184.53;5028220;28;20361;-24
2023/01/30 09:14:24;;;;;;;0.10;0.10;;;;;;;19.02;63.91;96171.03;5028050;28;20364;-23
2023/01/30 09:16:56;;;;;;;0.30;0.20;;;;;;;19.03;64.03;96180.72;5028379;28;20116;-23
2023/01/30 09:19:22;;;;;;;0.32;0.20;;;;;;;19.00;63.88;96174.06;5026518;28;20030;-23
2023/01/30 09:21:49;;;;;;;0.20;0.20;;;;;;;19.02;63.74;96171.78;5026454;28;20025;-23
2023/01/30 09:24:15;;;;;;;0.75;0.28;;;;;;;19.01;64.15;96164.81;5027792;28;20029;-22
2023/01/30 09:26:43;;;;;;;0.20;0.20;;;;;;;19.01;63.89;96159.41;5028033;28;20171;-22
2023/01/30 09:29:10;;;;;;;0.30;0.30;;;;;;;19.01;64.13;96153.22;5025876;28;20383;-22
2023/01/30 09:31:36;;;;;;;0.20;0.20;;;;;;;19.01;64.22;96161.34;5027191;28;20040;-24
2023/01/30 09:34:02;;;;;;;0.25;0.25;;;;;;;19.01;64.04;96147.81;5027350;28;20033;-24
2023/01/30 09:36:28;;;;;;;0.10;0.10;;;;;;;19.02;63.95;96152.84;5027527;28;20486;-24
2023/01/30 09:38:53;;;;;;;0.20;0.20;;;;;;;19.01;64.00;96150.53;5025328;28;20525;-22
2023/01/30 09:41:37;;;;;;;0.20;0.20;;;;;;;19.04;64.09;96161.44;5025195;28;20136;-23
2023/01/30 09:44:38;;;;;;;0.20;0.20;;;;;;;19.05;63.96;96159.50;5025691;28;20415;-24
2023/01/30 09:47:12;;;;;;;0.20;0.20;;;;;;;19.02;64.35;96155.56;5022654;28;20263;-22
2023/01/30 09:49:44;;;;;;;0.20;0.20;;;;;;;19.04;64.12;96157.94;5023107;28;20026;-24
2023/01/30 09:52:52;;;;;;;0.10;0.10;;;;;;;19.05;64.07;96164.91;5026777;28;20109;-23
2023/01/30 09:55:23;;;;;;;0.20;0.20;;;;;;;19.05;63.89;96173.81;4998551;28;20096;-23
2023/01/30 09:57:49;;;;;;;0.20;0.20;;;;;;;19.01;64.03;96161.34;5025418;28;20103;-23
2023/01/30 10:00:30;;;;;;;0.20;0.20;;;;;;;19.05;64.04;96154.09;5008410;28;20483;-22
2023/01/30 10:03:04;;;;;;;0.20;0.20;;;;;;;19.03;64.14;96151.75;5026068;28;20027;-24
2023/01/30 10:05:53;;;;;;;0.43;0.20;;;;;;;19.05;64.13;96159.50;5023825;28;20132;-23
2023/01/30 10:08:38;;;;;;;0.10;0.10;;;;;;;19.05;64.06;96154.09;5024718;28;20038;-22
2023/01/30 10:11:32;;;;;;;0.20;0.20;;;;;;;19.07;64.14;96162.66;5025839;28;20097;-25
2023/01/30 10:14:08;;;;;;;0.20;0.20;;;;;;;19.06;64.25;96152.97;5024220;28;20049;-23
2023/01/30 10:16:40;;;;;;;0.20;0.20;;;;;;;19.06;64.30;96151.06;5025701;28;20033;-23
2023/01/30 10:19:27;;;;;;;0.25;0.25;;;;;;;19.07;63.82;96159.94;5022547;28;20450;-23
2023/01/30 10:22:31;;;;;;;0.13;0.10;;;;;;;19.08;64.07;96158.81;5024686;28;20053;-24
2023/01/30 10:25:15;;;;;;;0.20;0.20;;;;;;;19.08;64.21;96151.47;5022270;28;20045;-27
2023/01/30 10:27:49;;;;;;;0.20;0.20;;;;;;;19.07;64.20;96157.25;5024515;28;20034;-26
2023/01/30 10:30:15;;;;;;;0.20;0.20;;;;;;;19.08;64.26;96161.53;5022675;28;20038;-23
2023/01/30 10:32:47;;;;;;;0.28;0.20;;;;;;;19.08;64.32;96161.53;5024499;28;20102;-23
2023/01/30 10:35:23;;;;;;;0.22;0.22;;;;;;;19.09;64.44;96154.97;5022288;28;20094;-24
2023/01/30 10:38:15;;;;;;;0.32;0.10;;;;;;;19.10;64.05;96156.56;5024228;28;20418;-23
2023/01/30 10:41:19;;;;;;;0.20;0.20;;;;;;;19.11;64.27;96158.13;5024927;28;20093;-21
2023/01/30 10:43:47;;;;;;;0.20;0.20;;;;;;;19.11;63.95;96158.13;5021849;28;20045;-22
2023/01/30 10:46:38;;;;;;;0.45;0.22;;;;;;;19.12;64.21;96148.88;5008059;28;20029;-24
2023/01/30 10:49:18;;;;;;;0.35;0.20;;;;;;;19.10;64.08;96134.91;5024755;28;20033;-25
2023/01/30 10:52:12;;;;;;;0.38;0.30;;;;;;;19.11;64.15;96142.69;5023731;28;20091;-25
2023/01/30 10:54:57;;;;;;;0.40;0.20;;;;;;;19.11;64.38;96141.91;5023216;28;20027;-23
2023/01/30 10:57:32;;;;;;;0.47;0.22;;;;;;;19.11;64.10;96134.56;5022440;28;20033;-25
2023/01/30 11:00:04;;;;;;;0.20;0.20;;;;;;;19.13;64.42;96132.28;5023977;28;20025;-23
2023/01/30 11:02:49;;;;;;;0.38;0.30;;;;;;;19.14;64.24;96135.78;5022195;28;20025;-26
2023/01/30 11:05:19;;;;;;;0.20;0.20;;;;;;;19.13;64.45;96126.09;5023598;28;20116;-26
2023/01/30 11:07:45;;;;;;;0.45;0.25;;;;;;;19.14;64.40;96130.38;4983356;28;20492;-23
2023/01/30 11:10:16;;;;;;;0.98;0.30;;;;;;;19.10;62.92;96129.50;5023079;28;20029;-24
2023/01/30 11:12:41;;;;;;;0.82;0.28;;;;;;;19.14;64.26;96135.78;5023964;28;20049;-23
2023/01/30 11:15:08;;;;;;;0.68;0.22;;;;;;;19.12;64.10;96133.41;5025264;28;20550;-22
2023/01/30 11:17:38;;;;;;;0.45;0.28;;;;;;;19.12;64.32;96127.22;5024790;28;20044;-23
2023/01/30 11:20:07;;;;;;;1.17;0.30;;;;;;;19.15;62.44;96129.25;5024993;28;20488;-27
2023/01/30 11:22:33;;;;;;;0.30;0.30;;;;;;;19.14;63.77;96131.16;5024533;28;20040;-25
2023/01/30 11:25:01;;;;;;;0.30;0.30;;;;;;;19.16;64.46;96121.91;5024455;28;20030;-27
2023/01/30 11:27:28;;;;;;;0.28;0.28;;;;;;;19.15;64.18;96107.59;5004709;28;20451;-25
2023/01/30 11:30:05;;;;;;;0.75;0.38;;;;;;;19.17;64.52;96109.94;5024603;28;20495;-25
2023/01/30 11:32:31;;;;;;;0.28;0.28;;;;;;;19.16;64.63;96116.50;5023906;28;20025;-22
2023/01/30 11:35:06;;;;;;;0.65;0.30;;;;;;;19.18;64.41;96106.91;5025129;28;20030;-23
2023/01/30 11:37:36;;;;;;;0.55;0.20;;;;;;;19.17;64.82;96085.59;5023918;28;20041;-23
2023/01/30 11:40:16;;;;;;;0.25;0.20;;;;;;;19.18;64.87;96090.66;5023154;28;20025;-24
2023/01/30 11:42:46;;;;;;;0.30;0.30;;;;;;;19.18;64.75;96089.84;5023009;28;20035;-23
2023/01/30 11:45:12;;;;;;;1.17;0.35;;;;;;;19.19;64.42;96097.63;5024660;28;20033;-23
2023/01/30 11:47:39;;;;;;;0.20;0.20;;;;;;;19.20;64.59;96106.56;5022644;28;20029;-24
2023/01/30 11:50:05;;;;;;;0.22;0.20;;;;;;;19.19;64.37;96105.75;5024312;28;20116;-23
2023/01/30 11:52:32;;;;;;;0.30;0.30;;;;;;;19.20;64.35;96101.91;5022906;28;20392;-25